Beach Haven, New Jersey
Current Conditions -  °F | °C
As of 1:54 AM on Saturday 01 Nov 2014 (Local Time) from KACY Reporting Station
Light Rain Light Rain  
Wind Chill: 53°   Ceiling: 1000
Heat Index: 53°   Visibility: 9mi
Dew Point: 51°   Wind: 10mph
Humidity: 93%   Direction: 20°NNE
Pressure: 29.73"   Gusts: NA
Location:  39.56°N, 74.24°W
Report Text: KACY 010554Z 02009KT 9SM -RA BKN010 OVC014 12/11 A2973 RMK AO2 RAB47 CIG 007V012 SLP066 P0000 60000 T01170106 10122 20083 56021
Loading
Personal Weather Stations






























Interactive Weather Map New forecast layout! Learn more

10-Day Weather Forecast

Advertisements
Track Severe Weather on mobile